createdAt,value
2022-11-29T00:01:11.486Z,10.50
2022-11-29T00:03:38.217Z,10.55
2022-11-29T00:06:20.226Z,11.45
2022-11-29T00:08:47.598Z,10.55
2022-11-29T00:11:38.723Z,11.27
2022-11-29T00:14:06.550Z,11.20
2022-11-29T00:16:33.486Z,10.90
2022-11-29T00:19:00.314Z,10.93
2022-11-29T00:21:26.956Z,11.13
2022-11-29T00:23:53.704Z,10.10
2022-11-29T00:26:20.383Z,11.85
2022-11-29T00:28:46.959Z,11.35
2022-11-29T00:31:16.166Z,10.90
2022-11-29T00:33:42.845Z,10.55
2022-11-29T00:36:10.183Z,10.43
2022-11-29T00:38:36.843Z,11.32
2022-11-29T00:41:03.615Z,11.45
2022-11-29T00:43:30.335Z,11.10
2022-11-29T00:45:57.164Z,11.25
2022-11-29T00:48:24.761Z,10.70
2022-11-29T00:50:51.427Z,11.10
2022-11-29T00:53:18.021Z,11.15
2022-11-29T00:55:47.316Z,10.85
2022-11-29T00:58:14.044Z,10.13
2022-11-29T01:00:40.685Z,11.00
2022-11-29T01:03:07.687Z,11.48
2022-11-29T01:05:34.229Z,11.77
2022-11-29T01:08:01.090Z,12.20
2022-11-29T01:10:28.040Z,12.95
2022-11-29T01:12:55.299Z,11.93
2022-11-29T01:15:22.201Z,11.02
2022-11-29T01:17:49.467Z,11.15
2022-11-29T01:20:17.152Z,10.90
2022-11-29T01:22:43.734Z,11.98
2022-11-29T01:25:12.444Z,12.32
2022-11-29T01:27:39.716Z,11.93
2022-11-29T01:30:08.317Z,12.65
2022-11-29T01:32:35.316Z,12.25
2022-11-29T01:35:02.280Z,11.25
2022-11-29T01:37:29.836Z,12.10
2022-11-29T01:39:56.517Z,12.50
2022-11-29T01:42:23.419Z,12.00
2022-11-29T01:44:49.903Z,12.48
2022-11-29T01:47:19.625Z,12.10
2022-11-29T01:49:49.685Z,11.77
2022-11-29T01:52:34.228Z,11.77
2022-11-29T01:55:05.433Z,11.93
2022-11-29T01:57:35.187Z,11.02
2022-11-29T02:00:08.668Z,11.65
2022-11-29T02:02:47.144Z,11.10
2022-11-29T02:05:16.789Z,12.23
2022-11-29T02:07:46.517Z,11.90
2022-11-29T02:10:15.639Z,12.43
2022-11-29T02:13:33.012Z,11.30
2022-11-29T02:16:05.002Z,13.18
2022-11-29T02:19:09.273Z,12.30
2022-11-29T02:21:44.802Z,11.95
2022-11-29T02:24:25.468Z,12.07
2022-11-29T02:29:53.656Z,13.15
2022-11-29T02:32:35.451Z,13.30
2022-11-29T02:35:07.874Z,13.32
2022-11-29T02:38:11.793Z,12.88
2022-11-29T02:41:10.841Z,13.90
2022-11-29T02:43:40.471Z,13.45
2022-11-29T02:46:10.221Z,13.17
2022-11-29T02:48:50.793Z,14.18
2022-11-29T02:51:43.825Z,13.73
2022-11-29T02:54:26.263Z,14.13
2022-11-29T02:57:21.604Z,14.07
2022-11-29T03:00:02.219Z,13.70
2022-11-29T03:04:57.992Z,12.68
2022-11-29T03:07:46.821Z,13.75
2022-11-29T03:10:34.547Z,14.18
2022-11-29T03:13:05.215Z,14.48
2022-11-29T03:18:32.855Z,14.63
2022-11-29T03:21:23.768Z,14.20
2022-11-29T03:23:56.871Z,13.80
2022-11-29T03:26:31.986Z,14.20
2022-11-29T03:29:26.938Z,15.50
2022-11-29T03:32:08.979Z,15.52
2022-11-29T03:35:02.368Z,14.27
2022-11-29T03:37:44.047Z,14.77
2022-11-29T03:40:14.732Z,14.60
2022-11-29T03:45:20.014Z,14.27
2022-11-29T03:47:57.871Z,15.10
2022-11-29T03:50:31.879Z,15.15
2022-11-29T03:53:12.734Z,14.38
2022-11-29T03:56:01.332Z,13.98
2022-11-29T03:58:39.374Z,13.75
2022-11-29T04:01:21.277Z,12.95
2022-11-29T04:04:08.831Z,15.85
2022-11-29T04:07:17.551Z,14.20
2022-11-29T04:10:05.648Z,14.25
2022-11-29T04:12:49.219Z,14.73
2022-11-29T04:15:40.684Z,14.82
2022-11-29T04:18:38.359Z,14.68
2022-11-29T04:21:29.485Z,14.23
2022-11-29T04:24:40.323Z,13.80
2022-11-29T04:30:02.045Z,13.95
2022-11-29T04:33:03.013Z,13.85
2022-11-29T04:35:32.208Z,14.07
2022-11-29T04:38:01.731Z,14.38
2022-11-29T04:40:53.086Z,15.05
2022-11-29T04:43:41.368Z,14.73
2022-11-29T04:46:53.010Z,13.82
2022-11-29T04:49:34.576Z,14.27
2022-11-29T04:52:38.913Z,14.52
2022-11-29T04:55:20.792Z,14.27
2022-11-29T04:58:03.946Z,14.57
2022-11-29T05:00:39.655Z,13.88
2022-11-29T05:03:38.947Z,14.32
2022-11-29T05:06:17.788Z,13.30
2022-11-29T05:09:06.043Z,14.07
2022-11-29T05:11:44.649Z,14.27
2022-11-29T05:14:17.762Z,14.60
2022-11-29T05:16:53.492Z,12.95
2022-11-29T05:19:19.993Z,13.30
2022-11-29T05:22:05.242Z,13.43
2022-11-29T05:24:53.712Z,13.63
2022-11-29T05:27:28.312Z,12.90
2022-11-29T05:30:21.189Z,12.70
2022-11-29T05:32:50.822Z,14.40
2022-11-29T05:35:26.232Z,14.32
2022-11-29T05:37:56.898Z,13.80
2022-11-29T05:43:12.866Z,13.93
2022-11-29T05:45:51.221Z,13.18
2022-11-29T05:48:28.593Z,12.85
2022-11-29T05:51:13.933Z,13.57
2022-11-29T05:53:54.999Z,11.85
2022-11-29T05:56:33.588Z,12.15
2022-11-29T05:59:08.191Z,13.07
2022-11-29T06:01:42.053Z,11.80
2022-11-29T06:04:34.371Z,12.07
2022-11-29T06:07:22.618Z,12.13
2022-11-29T06:10:00.534Z,12.65
2022-11-29T06:12:31.275Z,12.68
2022-11-29T06:15:17.487Z,12.35
2022-11-29T06:18:06.748Z,12.80
2022-11-29T06:20:42.717Z,12.25
2022-11-29T06:23:09.239Z,13.38
2022-11-29T06:26:03.487Z,12.20
2022-11-29T06:29:01.952Z,12.18
2022-11-29T06:31:34.262Z,12.35
2022-11-29T06:34:16.392Z,12.10
2022-11-29T06:36:48.966Z,12.65
2022-11-29T06:39:16.179Z,12.43
2022-11-29T06:41:43.254Z,13.10
2022-11-29T06:44:10.684Z,13.45
2022-11-29T06:46:56.162Z,12.15
2022-11-29T06:49:27.088Z,11.73
2022-11-29T06:51:59.263Z,12.52
2022-11-29T06:54:38.913Z,11.82
2022-11-29T06:57:24.681Z,12.45
2022-11-29T07:00:20.552Z,11.23
2022-11-29T07:03:11.180Z,11.18
2022-11-29T07:05:38.279Z,11.32
2022-11-29T07:08:25.430Z,12.23
2022-11-29T07:10:54.911Z,11.05
2022-11-29T07:13:21.813Z,11.02
2022-11-29T07:15:51.558Z,12.38
2022-11-29T07:18:46.992Z,12.05
2022-11-29T07:21:25.554Z,11.57
2022-11-29T07:24:02.697Z,11.93
2022-11-29T07:26:33.295Z,12.35
2022-11-29T07:31:43.561Z,11.60
2022-11-29T07:34:49.936Z,11.27
2022-11-29T07:38:00.604Z,11.02
2022-11-29T07:40:49.688Z,10.95
2022-11-29T07:43:40.335Z,10.90
2022-11-29T07:46:06.997Z,11.30
2022-11-29T07:48:33.556Z,10.38
2022-11-29T07:51:00.934Z,12.07
2022-11-29T07:53:28.943Z,10.10
2022-11-29T07:55:55.575Z,11.10
2022-11-29T07:58:22.175Z,10.73
2022-11-29T08:00:49.051Z,10.98
2022-11-29T08:03:15.704Z,11.00
2022-11-29T08:05:47.251Z,10.63
2022-11-29T08:08:14.161Z,10.43
2022-11-29T08:10:40.736Z,10.88
2022-11-29T08:13:07.345Z,10.95
2022-11-29T08:15:33.979Z,11.48
2022-11-29T08:18:02.362Z,10.10
2022-11-29T08:20:28.928Z,10.88
2022-11-29T08:22:57.396Z,11.02
2022-11-29T08:25:24.582Z,9.70
2022-11-29T08:27:51.706Z,9.35
2022-11-29T08:30:21.981Z,9.43
2022-11-29T08:32:51.526Z,10.18
2022-11-29T08:35:23.366Z,10.38
2022-11-29T08:37:50.507Z,8.75
2022-11-29T08:40:17.812Z,8.45
2022-11-29T08:42:44.469Z,8.60
2022-11-29T08:45:11.856Z,9.20
2022-11-29T08:47:39.147Z,9.45
2022-11-29T08:50:15.047Z,8.27
2022-11-29T08:53:06.077Z,8.18
2022-11-29T08:55:39.851Z,9.05
2022-11-29T08:58:09.386Z,8.25
2022-11-29T09:00:37.429Z,8.65
2022-11-29T09:03:24.396Z,7.28
2022-11-29T09:05:52.246Z,8.07
2022-11-29T09:08:19.017Z,7.60
2022-11-29T09:10:46.015Z,7.82
2022-11-29T09:13:12.648Z,8.00
2022-11-29T09:15:41.847Z,8.30
2022-11-29T09:18:08.510Z,7.25
2022-11-29T09:20:35.203Z,8.15
2022-11-29T09:23:01.778Z,7.47
2022-11-29T09:25:28.686Z,7.38
2022-11-29T09:27:58.163Z,7.93
2022-11-29T09:30:24.910Z,7.68
2022-11-29T09:32:51.616Z,7.38
2022-11-29T09:35:18.283Z,7.72
2022-11-29T09:37:44.883Z,7.88
2022-11-29T09:40:18.156Z,7.70
2022-11-29T09:42:52.285Z,7.28
2022-11-29T09:45:30.306Z,7.85
2022-11-29T09:48:33.011Z,7.05
2022-11-29T09:51:24.161Z,8.15
2022-11-29T09:53:50.679Z,8.60
2022-11-29T09:56:41.215Z,7.80
2022-11-29T09:59:27.763Z,8.27
2022-11-29T10:02:02.698Z,8.60
2022-11-29T10:04:36.352Z,8.13
2022-11-29T10:07:21.553Z,7.57
2022-11-29T10:09:56.100Z,7.05
2022-11-29T10:12:35.965Z,7.70
2022-11-29T10:15:19.630Z,7.80
2022-11-29T10:17:55.267Z,7.55
2022-11-29T10:20:29.831Z,7.80
2022-11-29T10:23:21.924Z,7.45
2022-11-29T10:25:51.583Z,7.47
2022-11-29T10:28:25.817Z,7.15
2022-11-29T10:30:57.465Z,7.40
2022-11-29T10:33:29.699Z,7.10
2022-11-29T10:35:59.566Z,7.80
2022-11-29T10:38:31.112Z,8.07
2022-11-29T10:41:05.432Z,7.22
2022-11-29T10:43:32.017Z,7.95
2022-11-29T10:45:59.102Z,7.93
2022-11-29T10:48:31.696Z,8.68
2022-11-29T10:50:58.665Z,8.73
2022-11-29T10:53:35.936Z,8.13
2022-11-29T10:56:14.049Z,7.95
2022-11-29T10:59:06.102Z,7.50
2022-11-29T11:01:38.262Z,8.93
2022-11-29T11:04:09.842Z,8.52
2022-11-29T11:06:49.660Z,8.23
2022-11-29T11:09:21.086Z,8.07
2022-11-29T11:11:57.075Z,7.82
2022-11-29T11:14:27.222Z,8.88
2022-11-29T11:16:54.055Z,8.32
2022-11-29T11:19:32.672Z,8.38
2022-11-29T11:22:03.996Z,8.55
2022-11-29T11:24:39.272Z,8.10
2022-11-29T11:27:05.927Z,8.02
2022-11-29T11:29:37.801Z,8.73
2022-11-29T11:32:05.148Z,8.57
2022-11-29T11:34:36.123Z,8.88
2022-11-29T11:37:14.810Z,8.15
2022-11-29T11:39:43.265Z,8.73
2022-11-29T11:42:35.163Z,8.63
2022-11-29T11:45:04.490Z,8.02
2022-11-29T11:47:35.754Z,8.45
2022-11-29T11:50:02.480Z,8.85
2022-11-29T11:52:30.598Z,8.70
2022-11-29T11:55:04.694Z,8.98
2022-11-29T11:57:31.731Z,8.55
2022-11-29T12:00:06.444Z,9.07
2022-11-29T12:02:40.719Z,8.70
2022-11-29T12:05:16.993Z,7.85
2022-11-29T12:10:37.540Z,8.20
2022-11-29T12:13:04.911Z,9.38
2022-11-29T12:15:39.781Z,9.05
2022-11-29T12:18:36.067Z,7.88
2022-11-29T12:21:14.217Z,7.95
2022-11-29T12:23:47.559Z,8.40
2022-11-29T12:26:55.211Z,9.65
2022-11-29T12:29:20.025Z,8.07
2022-11-29T12:32:08.159Z,9.00
2022-11-29T12:34:43.735Z,8.85
2022-11-29T12:37:30.182Z,8.18
2022-11-29T12:40:13.762Z,8.45
2022-11-29T12:43:01.560Z,8.60
2022-11-29T12:45:40.558Z,8.50
2022-11-29T12:48:19.319Z,8.35
2022-11-29T12:51:12.950Z,9.32
2022-11-29T12:54:07.488Z,9.13
2022-11-29T12:57:04.171Z,8.85
2022-11-29T12:59:30.708Z,9.48
2022-11-29T13:02:03.930Z,9.10
2022-11-29T13:04:36.631Z,9.23
2022-11-29T13:07:22.406Z,8.50
2022-11-29T13:10:04.510Z,8.63
2022-11-29T13:12:39.792Z,8.73
2022-11-29T13:15:14.817Z,8.15
2022-11-29T13:17:48.776Z,9.90
2022-11-29T13:20:30.148Z,10.68
2022-11-29T13:23:02.968Z,9.35
2022-11-29T13:25:42.718Z,9.52
2022-11-29T13:28:26.325Z,9.55
2022-11-29T13:30:56.936Z,8.85
2022-11-29T13:36:15.679Z,9.20
2022-11-29T13:38:58.117Z,9.88
2022-11-29T13:41:32.105Z,9.68
2022-11-29T13:44:13.187Z,9.80
2022-11-29T13:46:39.744Z,10.90
2022-11-29T13:49:06.502Z,9.82
2022-11-29T13:51:37.291Z,9.65
2022-11-29T13:54:29.043Z,9.65
2022-11-29T13:57:09.412Z,10.13
2022-11-29T13:59:44.268Z,9.63
2022-11-29T14:02:43.445Z,9.32
2022-11-29T14:05:26.054Z,9.40
2022-11-29T14:08:37.711Z,10.68
2022-11-29T14:11:14.114Z,10.00
2022-11-29T14:14:07.549Z,10.13
2022-11-29T14:16:37.831Z,10.40
2022-11-29T14:19:10.263Z,9.50
2022-11-29T14:22:07.274Z,9.65
2022-11-29T14:24:36.848Z,10.07
2022-11-29T14:27:06.638Z,9.63
2022-11-29T14:29:52.531Z,10.00
2022-11-29T14:32:25.196Z,10.00
2022-11-29T14:35:11.820Z,10.27
2022-11-29T14:38:02.855Z,8.80
2022-11-29T14:40:43.248Z,9.45
2022-11-29T14:43:19.965Z,9.93
2022-11-29T14:45:46.915Z,10.80
2022-11-29T14:48:44.298Z,8.90
2022-11-29T14:51:19.634Z,9.77
2022-11-29T14:53:49.740Z,9.65
2022-11-29T14:56:31.721Z,10.30
2022-11-29T14:59:35.807Z,9.60
2022-11-29T15:02:07.136Z,10.70
2022-11-29T15:04:35.617Z,10.52
2022-11-29T15:07:03.527Z,10.52
2022-11-29T15:09:34.178Z,10.70
2022-11-29T15:14:44.738Z,10.13
2022-11-29T15:17:56.349Z,10.38
2022-11-29T15:20:34.828Z,10.35
2022-11-29T15:23:07.172Z,11.02
2022-11-29T15:25:34.462Z,10.35
2022-11-29T15:28:03.774Z,10.65
2022-11-29T15:30:36.409Z,11.50
2022-11-29T15:33:21.007Z,9.95
2022-11-29T15:35:52.799Z,10.68
2022-11-29T15:38:21.675Z,10.50
2022-11-29T15:40:54.131Z,11.13
2022-11-29T15:43:26.832Z,11.45
2022-11-29T15:45:55.543Z,11.02
2022-11-29T15:48:23.921Z,11.98
2022-11-29T15:50:55.918Z,12.00
2022-11-29T15:53:40.567Z,12.32
2022-11-29T15:56:24.993Z,11.93
2022-11-29T15:58:59.487Z,12.73
2022-11-29T16:01:26.453Z,11.80
2022-11-29T16:03:55.689Z,12.32
2022-11-29T16:06:41.524Z,12.43
2022-11-29T16:09:13.057Z,12.20
2022-11-29T16:11:39.815Z,12.88
2022-11-29T16:14:22.626Z,13.25
2022-11-29T16:16:52.715Z,13.18
2022-11-29T16:19:25.818Z,11.90
2022-11-29T16:22:23.271Z,12.52
2022-11-29T16:25:05.816Z,11.68
2022-11-29T16:27:36.340Z,12.55
2022-11-29T16:30:04.847Z,12.50
2022-11-29T16:32:42.611Z,12.02
2022-11-29T16:35:20.861Z,12.45
2022-11-29T16:37:48.234Z,12.88
2022-11-29T16:40:22.768Z,12.32
2022-11-29T16:43:04.639Z,11.85
2022-11-29T16:45:34.430Z,11.80
2022-11-29T16:48:02.796Z,13.15
2022-11-29T16:50:31.400Z,12.18
2022-11-29T16:53:34.984Z,12.30
2022-11-29T16:56:01.806Z,12.20
2022-11-29T16:58:28.551Z,12.65
2022-11-29T17:00:55.531Z,11.95
2022-11-29T17:03:22.543Z,10.57
2022-11-29T17:05:49.958Z,11.35
2022-11-29T17:08:16.527Z,12.20
2022-11-29T17:10:43.103Z,11.63
2022-11-29T17:13:11.408Z,11.88
2022-11-29T17:15:37.944Z,11.73
2022-11-29T17:18:04.597Z,11.85
2022-11-29T17:20:31.152Z,11.77
2022-11-29T17:22:57.844Z,12.13
2022-11-29T17:25:24.409Z,12.05
2022-11-29T17:27:51.147Z,11.90
2022-11-29T17:30:17.931Z,11.70
2022-11-29T17:32:44.708Z,11.10
2022-11-29T17:35:11.455Z,11.60
2022-11-29T17:37:37.997Z,11.55
2022-11-29T17:40:05.363Z,11.20
2022-11-29T17:42:31.907Z,11.00
2022-11-29T17:44:58.410Z,11.95
2022-11-29T17:47:25.022Z,11.73
2022-11-29T17:49:51.550Z,11.68
2022-11-29T17:52:18.089Z,11.88
2022-11-29T17:54:44.640Z,11.70
2022-11-29T17:57:11.244Z,11.70
2022-11-29T17:59:37.810Z,12.02
2022-11-29T18:02:04.614Z,11.00
2022-11-29T18:04:31.321Z,11.65
2022-11-29T18:06:58.647Z,11.40
2022-11-29T18:09:25.241Z,13.38
2022-11-29T18:11:52.473Z,11.88
2022-11-29T18:14:22.925Z,11.90
2022-11-29T18:16:50.111Z,13.07
2022-11-29T18:19:19.034Z,11.25
2022-11-29T18:21:46.142Z,12.82
2022-11-29T18:24:13.218Z,12.70
2022-11-29T18:26:39.977Z,12.63
2022-11-29T18:29:07.375Z,12.63
2022-11-29T18:31:40.024Z,12.43
2022-11-29T18:34:09.930Z,12.38
2022-11-29T18:36:45.377Z,12.23
2022-11-29T18:39:14.327Z,12.82
2022-11-29T18:41:43.649Z,12.80
2022-11-29T18:44:13.051Z,12.55
2022-11-29T18:46:41.510Z,11.90
2022-11-29T18:49:10.656Z,11.32
2022-11-29T18:51:38.499Z,12.73
2022-11-29T18:54:05.864Z,12.82
2022-11-29T18:56:34.504Z,12.50
2022-11-29T18:59:16.810Z,12.57
2022-11-29T19:01:45.360Z,12.35
2022-11-29T19:04:14.904Z,12.15
2022-11-29T19:06:42.333Z,12.32
2022-11-29T19:09:16.884Z,14.38
2022-11-29T19:11:43.738Z,13.82
2022-11-29T19:14:12.450Z,13.30
2022-11-29T19:16:42.042Z,12.38
2022-11-29T19:19:08.681Z,12.02
2022-11-29T19:21:35.587Z,12.98
2022-11-29T19:24:04.574Z,13.20
2022-11-29T19:26:33.369Z,12.98
2022-11-29T19:29:01.736Z,13.98
2022-11-29T19:31:29.487Z,13.48
2022-11-29T19:33:57.268Z,13.95
2022-11-29T19:36:29.854Z,13.05
2022-11-29T19:38:59.778Z,13.68
2022-11-29T19:41:28.538Z,14.00
2022-11-29T19:44:01.671Z,13.48
2022-11-29T19:46:31.756Z,13.20
2022-11-29T19:48:59.783Z,14.23
2022-11-29T19:51:28.754Z,12.82
2022-11-29T19:53:57.811Z,13.70
2022-11-29T19:56:24.701Z,14.23
2022-11-29T19:58:52.101Z,13.90
2022-11-29T20:01:22.748Z,13.82
2022-11-29T20:06:17.431Z,13.43
2022-11-29T20:08:44.802Z,14.40
2022-11-29T20:11:15.412Z,14.55
2022-11-29T20:13:43.959Z,14.45
2022-11-29T20:16:15.901Z,15.18
2022-11-29T20:18:50.353Z,13.10
2022-11-29T20:21:30.298Z,14.60
2022-11-29T20:23:59.205Z,13.95
2022-11-29T20:26:27.302Z,13.80
2022-11-29T20:28:54.032Z,13.70
2022-11-29T20:31:23.211Z,14.27
2022-11-29T20:33:52.646Z,13.25
2022-11-29T20:36:38.263Z,13.75
2022-11-29T20:39:31.672Z,14.05
2022-11-29T20:42:29.479Z,12.93
2022-11-29T20:45:05.822Z,14.18
2022-11-29T20:47:53.853Z,12.65
2022-11-29T20:50:26.420Z,13.32
2022-11-29T20:53:27.641Z,13.25
2022-11-29T20:55:54.213Z,14.30
2022-11-29T20:58:21.216Z,13.25
2022-11-29T21:00:48.050Z,12.00
2022-11-29T21:03:16.319Z,12.60
2022-11-29T21:05:43.314Z,13.57
2022-11-29T21:08:09.891Z,12.25
2022-11-29T21:10:36.696Z,12.40
2022-11-29T21:13:03.444Z,12.57
2022-11-29T21:15:30.600Z,12.60
2022-11-29T21:17:57.420Z,13.15
2022-11-29T21:20:26.317Z,13.88
2022-11-29T21:23:01.953Z,13.25
2022-11-29T21:25:45.610Z,12.57
2022-11-29T21:28:14.420Z,13.63
2022-11-29T21:30:42.385Z,12.57
2022-11-29T21:33:09.785Z,13.45
2022-11-29T21:35:39.705Z,13.82
2022-11-29T21:38:12.448Z,12.77
2022-11-29T21:40:38.981Z,13.15
2022-11-29T21:43:05.654Z,12.27
2022-11-29T21:45:32.231Z,13.48
2022-11-29T21:48:02.051Z,12.52
2022-11-29T21:50:28.614Z,13.00
2022-11-29T21:52:56.019Z,11.57
2022-11-29T21:55:22.598Z,12.50
2022-11-29T21:57:49.135Z,12.35
2022-11-29T22:00:16.177Z,11.95
2022-11-29T22:02:42.785Z,10.50
2022-11-29T22:05:09.733Z,12.77
2022-11-29T22:07:36.398Z,12.13
2022-11-29T22:10:09.925Z,12.35
2022-11-29T22:12:38.354Z,12.07
2022-11-29T22:15:05.481Z,11.13
2022-11-29T22:17:32.047Z,12.25
2022-11-29T22:19:58.578Z,11.65
2022-11-29T22:22:28.094Z,11.88
2022-11-29T22:24:54.951Z,11.27
2022-11-29T22:27:21.496Z,11.55
2022-11-29T22:29:48.396Z,11.25
2022-11-29T22:32:15.070Z,12.13
2022-11-29T22:34:41.605Z,11.05
2022-11-29T22:37:08.138Z,12.18
2022-11-29T22:39:34.693Z,10.90
2022-11-29T22:42:01.284Z,10.60
2022-11-29T22:44:27.849Z,11.25
2022-11-29T22:46:54.491Z,10.68
2022-11-29T22:49:21.249Z,11.57
2022-11-29T22:51:47.864Z,12.35
2022-11-29T22:54:17.932Z,11.40
2022-11-29T22:56:46.108Z,10.48
2022-11-29T22:59:12.982Z,11.45
2022-11-29T23:01:40.904Z,11.30
2022-11-29T23:04:10.662Z,11.27
2022-11-29T23:06:40.741Z,11.10
2022-11-29T23:09:21.176Z,10.75
2022-11-29T23:11:53.853Z,11.27
2022-11-29T23:14:20.623Z,11.23
2022-11-29T23:16:47.293Z,11.30
2022-11-29T23:19:16.129Z,11.13
2022-11-29T23:21:45.394Z,11.10
2022-11-29T23:24:12.809Z,10.77
2022-11-29T23:26:41.493Z,11.02
2022-11-29T23:29:11.692Z,11.27
2022-11-29T23:31:39.039Z,10.95
2022-11-29T23:34:05.689Z,10.52
2022-11-29T23:36:32.507Z,12.20
2022-11-29T23:38:59.090Z,12.02
2022-11-29T23:41:25.767Z,11.93
2022-11-29T23:43:52.445Z,11.30
2022-11-29T23:46:21.126Z,11.10
2022-11-29T23:48:48.433Z,11.10
2022-11-29T23:51:15.762Z,11.63
2022-11-29T23:53:42.750Z,11.30
2022-11-29T23:56:15.971Z,11.85
2022-11-29T23:58:43.791Z,11.80
